createdAt,value
2022-12-28T14:44:59.172Z,8.00
2022-12-28T14:47:34.772Z,8.00
2022-12-28T14:50:04.519Z,8.00
2022-12-28T14:52:44.505Z,7.90
2022-12-28T14:55:33.948Z,7.90
2022-12-28T14:58:06.028Z,7.80
2022-12-28T15:00:36.247Z,7.80
2022-12-28T15:03:19.947Z,7.80
2022-12-28T15:05:50.271Z,7.80
2022-12-28T15:08:18.786Z,7.80
2022-12-28T15:10:52.876Z,7.90
2022-12-28T15:13:21.514Z,7.90
2022-12-28T15:15:57.300Z,7.90
2022-12-28T15:18:25.884Z,8.00
2022-12-28T15:20:54.436Z,8.00
2022-12-28T15:23:22.695Z,8.00
2022-12-28T15:25:52.446Z,8.00
2022-12-28T15:28:20.765Z,7.90
2022-12-28T15:30:49.093Z,8.00
2022-12-28T15:33:17.611Z,7.90
2022-12-28T15:35:46.147Z,7.90
2022-12-28T15:38:14.460Z,7.90
2022-12-28T15:40:42.834Z,7.90
2022-12-28T15:43:12.556Z,7.90
2022-12-28T15:45:40.873Z,8.00
2022-12-28T15:48:09.178Z,8.00
2022-12-28T15:50:37.441Z,8.10
2022-12-28T15:53:05.727Z,8.10
2022-12-28T15:55:34.018Z,8.20
2022-12-28T15:58:02.260Z,8.20
2022-12-28T16:00:32.000Z,8.20
2022-12-28T16:03:00.434Z,8.20
2022-12-28T16:05:28.837Z,8.20
2022-12-28T16:07:57.065Z,8.20
2022-12-28T16:10:25.424Z,8.30
2022-12-28T16:12:53.637Z,8.30
2022-12-28T16:15:21.993Z,8.30
2022-12-28T16:17:57.244Z,8.30
2022-12-28T16:20:26.033Z,8.30
2022-12-28T16:22:54.729Z,8.20
2022-12-28T16:25:23.494Z,8.30
2022-12-28T16:27:51.862Z,8.30
2022-12-28T16:30:20.428Z,8.30
2022-12-28T16:32:48.967Z,8.30
2022-12-28T16:35:18.709Z,8.30
2022-12-28T16:37:47.507Z,8.30
2022-12-28T16:40:15.984Z,8.30
2022-12-28T16:42:45.882Z,8.30
2022-12-28T16:45:15.020Z,8.30
2022-12-28T16:47:45.116Z,8.30
2022-12-28T16:50:13.671Z,8.30
2022-12-28T16:52:43.336Z,8.30
2022-12-28T16:55:11.670Z,8.40
2022-12-28T16:57:40.208Z,8.40
2022-12-28T17:00:10.515Z,8.40
2022-12-28T17:02:38.955Z,8.40
2022-12-28T17:05:08.766Z,8.50
2022-12-28T17:07:37.059Z,8.50
2022-12-28T17:10:08.172Z,8.50
2022-12-28T17:12:36.424Z,8.60
2022-12-28T17:15:05.592Z,8.60
2022-12-28T17:17:34.233Z,8.60
2022-12-28T17:20:02.511Z,8.60
2022-12-28T17:22:31.214Z,8.60
2022-12-28T17:24:59.690Z,8.70
2022-12-28T17:27:29.390Z,8.70
2022-12-28T17:29:57.756Z,8.70
2022-12-28T17:32:26.253Z,8.60
2022-12-28T17:34:54.573Z,8.60
2022-12-28T17:37:22.870Z,8.50
2022-12-28T17:39:51.245Z,8.50
2022-12-28T17:42:19.630Z,8.50
2022-12-28T17:44:50.142Z,8.40
2022-12-28T17:47:18.473Z,8.40
2022-12-28T17:49:46.873Z,8.40
2022-12-28T17:52:20.120Z,8.40
2022-12-28T17:54:48.443Z,8.30
2022-12-28T17:57:16.693Z,8.40
2022-12-28T17:59:45.302Z,8.40
2022-12-28T18:02:15.086Z,8.40
2022-12-28T18:04:43.544Z,8.50
2022-12-28T18:07:11.859Z,8.50
2022-12-28T18:09:40.135Z,8.40
2022-12-28T18:12:08.576Z,8.50
2022-12-28T18:14:36.829Z,8.50
2022-12-28T18:17:05.179Z,8.50
2022-12-28T18:19:35.215Z,8.50
2022-12-28T18:22:03.736Z,8.50
2022-12-28T18:24:31.996Z,8.50
2022-12-28T18:27:00.293Z,8.50
2022-12-28T18:29:28.639Z,8.50
2022-12-28T18:31:56.851Z,8.50
2022-12-28T18:34:25.179Z,8.50
2022-12-28T18:36:55.192Z,8.50
2022-12-28T18:39:23.529Z,8.50
2022-12-28T18:41:51.807Z,8.50
2022-12-28T18:44:20.072Z,8.50
2022-12-28T18:46:48.414Z,8.50
2022-12-28T18:49:16.781Z,8.40
2022-12-28T18:51:45.025Z,8.40
2022-12-28T18:54:14.828Z,8.40
2022-12-28T18:56:43.216Z,8.50
2022-12-28T18:59:11.519Z,8.50
2022-12-28T19:04:29.402Z,8.50
2022-12-28T19:06:58.008Z,8.60
2022-12-28T19:09:27.785Z,8.60
2022-12-28T19:11:55.995Z,8.60
2022-12-28T19:14:24.509Z,8.50
2022-12-28T19:16:53.223Z,8.50
2022-12-28T19:19:21.542Z,8.50
2022-12-28T19:21:56.631Z,8.50
2022-12-28T19:24:28.759Z,8.40
2022-12-28T19:26:57.037Z,8.40
2022-12-28T19:29:25.377Z,8.40
2022-12-28T19:31:53.751Z,8.40
2022-12-28T19:34:22.129Z,8.40
2022-12-28T19:36:50.399Z,8.30
2022-12-28T19:39:18.700Z,8.40
2022-12-28T19:41:48.383Z,8.30
2022-12-28T19:44:20.149Z,8.30
2022-12-28T19:46:49.459Z,8.30
2022-12-28T19:49:17.801Z,8.30
2022-12-28T19:51:46.127Z,8.20
2022-12-28T19:54:14.705Z,8.30
2022-12-28T19:56:43.314Z,8.30
2022-12-28T19:59:12.976Z,8.30
2022-12-28T20:01:41.338Z,8.30
2022-12-28T20:04:14.065Z,8.30
2022-12-28T20:06:43.255Z,8.20
2022-12-28T20:09:11.826Z,8.20
2022-12-28T20:11:40.637Z,8.30
2022-12-28T20:14:09.177Z,8.20
2022-12-28T20:16:38.966Z,8.20
2022-12-28T20:19:08.623Z,8.20
2022-12-28T20:21:37.311Z,8.10
2022-12-28T20:24:07.415Z,8.10
2022-12-28T20:26:36.119Z,8.00
2022-12-28T20:29:04.715Z,7.90
2022-12-28T20:31:33.052Z,7.90
2022-12-28T20:34:02.922Z,7.90
2022-12-28T20:36:33.812Z,7.90
2022-12-28T20:39:02.735Z,7.90
2022-12-28T20:41:48.866Z,7.90
2022-12-28T20:44:18.459Z,7.90
2022-12-28T20:46:47.018Z,7.90
2022-12-28T20:49:17.652Z,7.90
2022-12-28T20:51:46.923Z,7.90
2022-12-28T20:54:15.557Z,7.90
2022-12-28T20:56:46.761Z,7.80
2022-12-28T20:59:17.705Z,7.80
2022-12-28T21:01:46.172Z,7.80
2022-12-28T21:04:16.064Z,7.90
2022-12-28T21:06:45.771Z,7.90
2022-12-28T21:09:14.333Z,7.90
2022-12-28T21:11:42.674Z,7.80
2022-12-28T21:14:10.987Z,7.80
2022-12-28T21:16:39.350Z,7.80
2022-12-28T21:19:07.702Z,7.80
2022-12-28T21:21:37.439Z,7.80
2022-12-28T21:24:06.167Z,7.80
2022-12-28T21:26:34.475Z,7.80
2022-12-28T21:29:02.791Z,7.90
2022-12-28T21:31:31.151Z,7.90
2022-12-28T21:33:59.956Z,7.90
2022-12-28T21:36:28.321Z,7.80
2022-12-28T21:38:57.964Z,7.90
2022-12-28T21:41:43.597Z,7.90
2022-12-28T21:44:13.304Z,7.90
2022-12-28T21:46:41.701Z,7.90
2022-12-28T21:49:09.991Z,7.90
2022-12-28T21:51:39.183Z,7.90
2022-12-28T21:54:11.071Z,7.90
2022-12-28T21:56:39.407Z,7.90
2022-12-28T21:59:07.794Z,7.90
2022-12-28T22:01:53.558Z,8.00
2022-12-28T22:04:40.525Z,8.00
2022-12-28T22:07:10.201Z,8.00
2022-12-28T22:09:57.454Z,7.90
2022-12-28T22:12:38.058Z,8.00
2022-12-28T22:15:29.601Z,7.90
2022-12-28T22:17:59.139Z,7.90
2022-12-28T22:20:28.422Z,8.00
2022-12-28T22:22:57.441Z,8.00
2022-12-28T22:25:27.389Z,8.00
2022-12-28T22:27:55.666Z,8.00
2022-12-28T22:30:24.023Z,8.10
2022-12-28T22:32:52.299Z,8.10
2022-12-28T22:35:20.659Z,8.10
2022-12-28T22:37:48.937Z,8.10
2022-12-28T22:40:17.846Z,8.20
2022-12-28T22:42:49.757Z,8.20
2022-12-28T22:45:19.673Z,8.20
2022-12-28T22:47:47.996Z,8.30
2022-12-28T22:50:19.419Z,8.30
2022-12-28T22:52:47.820Z,8.30
2022-12-28T22:55:16.267Z,8.30
2022-12-28T22:57:46.008Z,8.30
2022-12-28T23:00:16.128Z,8.30
2022-12-28T23:02:44.943Z,8.30
2022-12-28T23:05:13.431Z,8.30
2022-12-28T23:07:41.763Z,8.30
2022-12-28T23:10:11.264Z,8.40
2022-12-28T23:12:39.575Z,8.40
2022-12-28T23:15:18.720Z,8.40
2022-12-28T23:17:48.114Z,8.40
2022-12-28T23:20:33.870Z,8.40
2022-12-28T23:23:31.292Z,8.40
2022-12-28T23:26:24.627Z,8.40
2022-12-28T23:28:53.760Z,8.40
2022-12-28T23:31:23.492Z,8.40
2022-12-28T23:33:52.640Z,8.40
2022-12-28T23:36:21.419Z,8.40
2022-12-28T23:38:50.930Z,8.40
2022-12-28T23:41:36.515Z,8.40
2022-12-28T23:44:04.845Z,8.30
2022-12-28T23:46:34.870Z,8.40
2022-12-28T23:49:03.172Z,8.40
2022-12-28T23:51:31.834Z,8.50
2022-12-28T23:54:00.158Z,8.50
2022-12-28T23:56:28.453Z,8.50
2022-12-28T23:58:56.661Z,8.50
